PWSweather.com
Personal Weather Stations
Station Observations
KPHN4174
Mesa, AZ 85202

Mesa, AZ 85202

Lat: 33.40051, Lon: -111.86107

Elevation: 1217

Station Type: Davis Vantage Pro2

High Low Average
Temperature 95.1°F35.1°C 67.1°F19.5°C 79.2°F26.2°C
Dew Point 38.7°F3.7°C 29.8°F-1.2°C 33.9°F1.1°C
Winds 5.0 mph 8.0 kmh Calm Calm 1.0 mph ESE1.6 kmh ESE
Wind Gusts 11.0 mph17.7 kmh -- 3.0 mph4.8 kmh
Humidity 35% 11% 21%
Pressure 29.85 in1010.8 mb 29.75 in1007.5 mb -
Precipitation 0.00 in0.0 mm - -
Hour Temp Dew Point Humidity Winds Wind Gusts Pressure Precip Precip Rate Daily Precip Total
12:00 AM 72.6°F22.6°C 36.7°F2.6°C 27% Calm Calm -- 29.82 in1009.8 mb 0.00 in0.0 mm 0.00 in/hr0.0 mm/hr 0.00 in0.0 mm
12:30 AM 71.7°F22.1°C 35.0°F1.7°C 26% Calm Calm -- 29.82 in1009.8 mb 0.00 in0.0 mm 0.00 in/hr0.0 mm/hr 0.00 in0.0 mm
01:00 AM 70.9°F21.6°C 35.2°F1.8°C 27% Calm Calm -- 29.81 in1009.5 mb 0.00 in0.0 mm 0.00 in/hr0.0 mm/hr 0.00 in0.0 mm
01:30 AM 70.3°F21.3°C 34.7°F1.5°C 27% Calm Calm -- 29.81 in1009.5 mb 0.00 in0.0 mm 0.00 in/hr0.0 mm/hr 0.00 in0.0 mm
02:00 AM 69.2°F20.7°C 34.7°F1.5°C 28% Calm Calm -- 29.80 in1009.1 mb 0.00 in0.0 mm 0.00 in/hr0.0 mm/hr 0.00 in0.0 mm
02:30 AM 67.9°F19.9°C 36.1°F2.3°C 31% Calm Calm -- 29.80 in1009.1 mb 0.00 in0.0 mm 0.00 in/hr0.0 mm/hr 0.00 in0.0 mm
03:00 AM 67.3°F19.6°C 38.7°F3.7°C 35% Calm Calm -- 29.80 in1009.1 mb 0.00 in0.0 mm 0.00 in/hr0.0 mm/hr 0.00 in0.0 mm
03:30 AM 67.2°F19.6°C 37.9°F3.3°C 34% Calm Calm -- 29.80 in1009.1 mb 0.00 in0.0 mm 0.00 in/hr0.0 mm/hr 0.00 in0.0 mm
04:00 AM 67.1°F19.5°C 37.0°F2.8°C 33% Calm Calm 4.0 mph6.4 kmh 29.80 in1009.1 mb 0.00 in0.0 mm 0.00 in/hr0.0 mm/hr 0.00 in0.0 mm
04:30 AM 68.0°F20.0°C 36.2°F2.3°C 31% 1.0 mph E1.6 kmh E 4.0 mph6.4 kmh 29.79 in1008.8 mb 0.00 in0.0 mm 0.00 in/hr0.0 mm/hr 0.00 in0.0 mm
05:00 AM 69.2°F20.7°C 33.8°F1.0°C 27% 2.0 mph E3.2 kmh E 2.0 mph3.2 kmh 29.81 in1009.5 mb 0.00 in0.0 mm 0.00 in/hr0.0 mm/hr 0.00 in0.0 mm
05:30 AM 69.2°F20.7°C 32.8°F0.4°C 26% 1.0 mph E1.6 kmh E 3.0 mph4.8 kmh 29.81 in1009.5 mb 0.00 in0.0 mm 0.00 in/hr0.0 mm/hr 0.00 in0.0 mm
06:00 AM 69.2°F20.7°C 33.8°F1.0°C 27% 3.0 mph ESE4.8 kmh ESE 5.0 mph8.0 kmh 29.82 in1009.8 mb 0.00 in0.0 mm 0.00 in/hr0.0 mm/hr 0.00 in0.0 mm
06:30 AM 69.4°F20.8°C 34.9°F1.6°C 28% 2.0 mph E3.2 kmh E 4.0 mph6.4 kmh 29.83 in1010.2 mb 0.00 in0.0 mm 0.00 in/hr0.0 mm/hr 0.00 in0.0 mm
07:00 AM 70.0°F21.1°C 33.5°F0.8°C 26% 4.0 mph E6.4 kmh E 6.0 mph9.7 kmh 29.82 in1009.8 mb 0.00 in0.0 mm 0.00 in/hr0.0 mm/hr 0.00 in0.0 mm
07:30 AM 71.3°F21.8°C 34.6°F1.4°C 26% Calm Calm -- 29.85 in1010.8 mb 0.00 in0.0 mm 0.00 in/hr0.0 mm/hr 0.00 in0.0 mm
08:00 AM 72.4°F22.4°C 34.6°F1.4°C 25% Calm Calm -- 29.85 in1010.8 mb 0.00 in0.0 mm 0.00 in/hr0.0 mm/hr 0.00 in0.0 mm
08:30 AM 74.9°F23.8°C 35.7°F2.1°C 24% 1.0 mph NNW1.6 kmh NNW 1.0 mph1.6 kmh 29.85 in1010.8 mb 0.00 in0.0 mm 0.00 in/hr0.0 mm/hr 0.00 in0.0 mm
09:00 AM 77.5°F25.3°C 35.6°F2.0°C 22% 1.0 mph ESE1.6 kmh ESE 3.0 mph4.8 kmh 29.85 in1010.8 mb 0.00 in0.0 mm 0.00 in/hr0.0 mm/hr 0.00 in0.0 mm
09:30 AM 79.8°F26.6°C 32.5°F0.3°C 18% 3.0 mph E4.8 kmh E 5.0 mph8.0 kmh 29.85 in1010.8 mb 0.00 in0.0 mm 0.00 in/hr0.0 mm/hr 0.00 in0.0 mm
10:00 AM 83.0°F28.3°C 32.2°F0.1°C 16% 3.0 mph E4.8 kmh E 6.0 mph9.7 kmh 29.84 in1010.5 mb 0.00 in0.0 mm 0.00 in/hr0.0 mm/hr 0.00 in0.0 mm
10:30 AM 88.2°F31.2°C 34.7°F1.5°C 15% 2.0 mph NE3.2 kmh NE 6.0 mph9.7 kmh 29.84 in1010.5 mb 0.00 in0.0 mm 0.00 in/hr0.0 mm/hr 0.00 in0.0 mm
11:00 AM 91.1°F32.8°C 33.4°F0.8°C 13% 2.0 mph NE3.2 kmh NE 7.0 mph11.3 kmh 29.84 in1010.5 mb 0.00 in0.0 mm 0.00 in/hr0.0 mm/hr 0.00 in0.0 mm
11:30 AM 93.4°F34.1°C 33.2°F0.7°C 12% 2.0 mph ENE3.2 kmh ENE 5.0 mph8.0 kmh 29.83 in1010.2 mb 0.00 in0.0 mm 0.00 in/hr0.0 mm/hr 0.00 in0.0 mm
12:00 PM 93.2°F34.0°C 33.0°F0.6°C 12% 2.0 mph NE3.2 kmh NE 6.0 mph9.7 kmh 29.80 in1009.1 mb 0.00 in0.0 mm 0.00 in/hr0.0 mm/hr 0.00 in0.0 mm
12:30 PM 95.1°F35.1°C 32.3°F0.2°C 11% 1.0 mph S1.6 kmh S 5.0 mph8.0 kmh 29.80 in1009.1 mb 0.00 in0.0 mm 0.00 in/hr0.0 mm/hr 0.00 in0.0 mm
01:00 PM 91.9°F33.3°C 29.9°F-1.2°C 11% 1.0 mph W1.6 kmh W 2.0 mph3.2 kmh 29.78 in1008.5 mb 0.00 in0.0 mm 0.00 in/hr0.0 mm/hr 0.00 in0.0 mm
01:30 PM 92.9°F33.8°C 30.6°F-0.8°C 11% 2.0 mph NE3.2 kmh NE 4.0 mph6.4 kmh 29.76 in1007.8 mb 0.00 in0.0 mm 0.00 in/hr0.0 mm/hr 0.00 in0.0 mm
02:00 PM 92.0°F33.3°C 32.1°F0.1°C 12% 2.0 mph WSW3.2 kmh WSW 5.0 mph8.0 kmh 29.78 in1008.5 mb 0.00 in0.0 mm 0.00 in/hr0.0 mm/hr 0.00 in0.0 mm
02:30 PM 91.6°F33.1°C 33.8°F1.0°C 13% 1.0 mph SSW1.6 kmh SSW 5.0 mph8.0 kmh 29.77 in1008.1 mb 0.00 in0.0 mm 0.00 in/hr0.0 mm/hr 0.00 in0.0 mm
03:00 PM 91.4°F33.0°C 31.6°F-0.2°C 12% 4.0 mph WNW6.4 kmh WNW 7.0 mph11.3 kmh 29.76 in1007.8 mb 0.00 in0.0 mm 0.00 in/hr0.0 mm/hr 0.00 in0.0 mm
03:30 PM 91.5°F33.1°C 31.7°F-0.2°C 12% 2.0 mph W3.2 kmh W 5.0 mph8.0 kmh 29.75 in1007.5 mb 0.00 in0.0 mm 0.00 in/hr0.0 mm/hr 0.00 in0.0 mm
04:00 PM 91.8°F33.2°C 29.8°F-1.2°C 11% 2.0 mph WNW3.2 kmh WNW 6.0 mph9.7 kmh 29.75 in1007.5 mb 0.00 in0.0 mm 0.00 in/hr0.0 mm/hr 0.00 in0.0 mm
04:30 PM 91.4°F33.0°C 31.6°F-0.2°C 12% 5.0 mph WNW8.0 kmh WNW 11.0 mph17.7 kmh 29.75 in1007.5 mb 0.00 in0.0 mm 0.00 in/hr0.0 mm/hr 0.00 in0.0 mm
05:00 PM 90.6°F32.6°C 31.0°F-0.6°C 12% 3.0 mph NW4.8 kmh NW 7.0 mph11.3 kmh 29.74 in1007.1 mb 0.00 in0.0 mm 0.00 in/hr0.0 mm/hr 0.00 in0.0 mm
05:30 PM 90.1°F32.3°C 30.6°F-0.8°C 12% 3.0 mph W4.8 kmh W 4.0 mph6.4 kmh 29.74 in1007.1 mb 0.00 in0.0 mm 0.00 in/hr0.0 mm/hr 0.00 in0.0 mm
06:00 PM 89.4°F31.9°C 32.1°F0.1°C 13% 2.0 mph NW3.2 kmh NW 5.0 mph8.0 kmh 29.74 in1007.1 mb 0.00 in0.0 mm 0.00 in/hr0.0 mm/hr 0.00 in0.0 mm
06:30 PM 88.2°F31.2°C 34.7°F1.5°C 15% Calm Calm -- 29.73 in1006.8 mb 0.00 in0.0 mm 0.00 in/hr0.0 mm/hr 0.00 in0.0 mm
07:00 PM 86.9°F30.5°C 35.3°F1.8°C 16% 1.0 mph WNW1.6 kmh WNW 1.0 mph1.6 kmh 29.74 in1007.1 mb 0.00 in0.0 mm 0.00 in/hr0.0 mm/hr 0.00 in0.0 mm
07:30 PM 85.7°F29.8°C 37.3°F2.9°C 18% 3.0 mph W4.8 kmh W 9.0 mph14.5 kmh 29.75 in1007.5 mb 0.00 in0.0 mm 0.00 in/hr0.0 mm/hr 0.00 in0.0 mm
08:00 PM 84.4°F29.1°C 36.2°F2.3°C 18% 2.0 mph WNW3.2 kmh WNW 1.0 mph1.6 kmh 29.75 in1007.5 mb 0.00 in0.0 mm 0.00 in/hr0.0 mm/hr 0.00 in0.0 mm
08:30 PM 83.1°F28.4°C 36.6°F2.6°C 19% Calm Calm -- 29.75 in1007.5 mb 0.00 in0.0 mm 0.00 in/hr0.0 mm/hr 0.00 in0.0 mm
09:00 PM 81.3°F27.4°C 37.6°F3.1°C 21% Calm Calm -- 29.76 in1007.8 mb 0.00 in0.0 mm 0.00 in/hr0.0 mm/hr 0.00 in0.0 mm
09:30 PM 79.5°F26.4°C 37.3°F2.9°C 22% Calm Calm -- 29.76 in1007.8 mb 0.00 in0.0 mm 0.00 in/hr0.0 mm/hr 0.00 in0.0 mm
10:00 PM 78.6°F25.9°C 37.7°F3.2°C 23% Calm Calm 2.0 mph3.2 kmh 29.75 in1007.5 mb 0.00 in0.0 mm 0.00 in/hr0.0 mm/hr 0.00 in0.0 mm
10:30 PM 78.1°F25.6°C 38.4°F3.6°C 24% Calm Calm 2.0 mph3.2 kmh 29.74 in1007.1 mb 0.00 in0.0 mm 0.00 in/hr0.0 mm/hr 0.00 in0.0 mm
11:00 PM 78.2°F25.7°C 39.5°F4.2°C 25% Calm Calm 1.0 mph1.6 kmh 29.74 in1007.1 mb 0.00 in0.0 mm 0.00 in/hr0.0 mm/hr 0.00 in0.0 mm
11:30 PM 78.1°F25.6°C 39.4°F4.1°C 25% 2.0 mph S3.2 kmh S 6.0 mph9.7 kmh 29.75 in1007.5 mb 0.00 in0.0 mm 0.00 in/hr0.0 mm/hr 0.00 in0.0 mm